images/hfc/images/print_logo.png
Drucken
[Quelle: ADDS]
METAR
EDDW 231850Z 10006KT 060V140 7000 BKN014 M04/M07 Q1005 TEMPO BKN015 =
TAF
EDDW 231700Z 2318/2418 09007KT 7000 BKN015 TEMPO 2318/2418 4000 BR BKN012 PROB30 TEMPO 2320/2410 BKN008 =
BCMT / ECET: 06:42 / 16:31 UTC (EDDW 2019-01-23)

printlogo=no